Kelford, North Carolina
Current Conditions -  °F | °C
As of 3:55 AM on Friday 31 Oct 2014 (Local Time) from KETC Reporting Station
Clear Clear  
Wind Chill: 45°   Ceiling: Unl
Heat Index: 45°   Visibility: 10mi
Dew Point: 44°   Wind: 3mph
Humidity: 96%   Direction: 340°NNW
Pressure: 29.98"   Gusts: NA
Location:  36.18°N, 77.22°W
Report Text: KETC 310755Z AUTO 34003KT 10SM CLR 07/07 A2998 RMK AO2 T00720066
Loading
Personal Weather Stations






























Interactive Weather Map
Tropical Storm Tracking
New forecast layout! Learn more

10-Day Weather Forecast

Advertisements
Track Severe Weather on mobile